Terminal Aerodrome Forecast
Issued by NWS

Home | Current Version | Previous Version | Graphics & Text | Print | Product List | Glossary On
Versions: 1 2 3 4 5 6 7 8 9 10 11 12 13 14 15 16 17 18 19 20 21 22 23 24
000
FTUS43 KGRB 241700
TAFATW
TAF
KATW 241720Z 2418/2518 31011KT P6SM -RA OVC009
     FM241930 31012G20KT 6SM -RASN BR SCT004 OVC008
      TEMPO 2420/2422 3SM -SN BKN004
     FM242200 31012G20KT 1SM -SN SCT003 OVC006
      TEMPO 2422/2502 1/2SM SN OVC003
     FM250200 30012KT 1SM -SN OVC006
     FM250900 30009KT 5SM -SN OVC012
     FM251300 29008KT P6SM OVC020=

USA.gov is the U.S. government's official web portal to all federal, state and local government web resources and services.